Latest Coastal Weather Observations for Yarram Airport

IDV60701

Issued at 2:52 am EST Tuesday 28 June 2022 (issued every 10 minutes, with the page automatically refreshed every 10 minutes)

About coastal observations | Map of coastal stations | Coastal observations for VIC | Marine services | Other Formats
Station Details ID: 085151 Name: YARRAM AIRPORT Lat: -38.56 Lon: 146.75 Height: 17.9 m
Data from the previous 72 hours. | See also: Recent months at Yarram Airport
Date/Time
EST
Wind Sea
Height
m
Swell Vis
km
Cloud Weather Temp
°C
Press
MSL
hPa
Rain since
9am
mm
Dir  Spd
kts
Gust
kts
Height
m
Period
s
Dir
28/02:30am WNW 4 5 - - - - - - - 2.0 1031.8 0.2
28/02:00am CALM 0 4 - - - - - - - 2.0 1031.7 0.2
28/01:30am CALM 0 3 - - - - - - - 1.9 1031.5 0.2
28/01:00am N 5 5 - - - - - - - 1.7 1031.7 0.2
28/12:30am N 4 5 - - - - - - - 2.2 1031.7 0.2
28/12:00am NW 5 6 - - - - - - - 3.3 1032.3 0.2
 
Date/Time
EST
Wind Sea
Height
m
Swell Vis
km
Cloud Weather Temp
°C
Press
MSL
hPa
Rain since
9am
mm
Dir  Spd
kts
Gust
kts
Height
m
Period
s
Dir
27/11:30pm WNW 6 6 - - - - - - - 3.4 1032.5 0.2
27/11:00pm NNW 5 5 - - - - - - - 4.2 1032.2 0.2
27/10:30pm N 5 5 - - - - - - - 3.1 1032.1 0.2
27/10:00pm N 4 5 - - - - - - - 3.6 1032.4 0.2
27/09:30pm N 3 4 - - - - - - - 4.4 1032.7 0.2
27/09:00pm NNW 4 5 - - - - - - - 4.8 1032.9 0.2
27/08:30pm NNW 4 5 - - - - - - - 4.4 1033.0 0.2
27/08:00pm NW 4 5 - - - - - - - 4.0 1032.8 0.2
27/07:30pm NW 5 6 - - - - - - - 5.4 1032.7 0.2
27/07:00pm NW 5 6 - - - - - - - 5.5 1032.7 0.2
27/06:30pm WNW 6 6 - - - - - - - 6.4 1032.5 0.2
27/06:00pm NW 5 6 - - - - - - - 6.6 1032.1 0.2
27/05:30pm WSW 3 4 - - - - - - - 7.8 1032.1 0.2
27/05:00pm SW 7 9 - - - - - - - 9.0 1031.8 0.2
27/04:30pm SW 7 12 - - - - - - - 10.7 1031.6 0.2
27/04:00pm WSW 7 9 - - - - - - - 10.8 1031.7 0.2
27/03:30pm WSW 9 12 - - - - - - - 10.8 1031.5 0.2
27/03:00pm SW 10 13 - - - - - - - 11.2 1031.1 0.2
27/02:30pm SW 8 11 - - - - - - - 11.0 1031.3 0.2
27/02:00pm SSW 15 20 - - - - - - - 9.6 1031.4 0.2
27/01:30pm WSW 12 17 - - - - - - - 11.3 1031.1 0.0
27/01:00pm SSW 10 17 - - - - - - - 10.2 1031.4 0.0
27/12:30pm WSW 9 13 - - - - - - - 11.7 1031.3 0.0
27/12:00pm W 9 11 - - - - - - - 10.8 1031.4 0.0
27/11:30am WNW 10 13 - - - - - - - 10.6 1031.4 0.0
27/11:00am W 13 17 - - - - - - - 10.2 1031.7 0.0
27/10:30am W 7 9 - - - - - - - 10.2 1031.4 0.0
27/10:00am W 7 12 - - - - - - - 9.8 1031.6 0.0
27/09:30am WNW 6 8 - - - - - - - 9.6 1031.2 0.0
27/09:00am NW 6 7 - - - - - - - 7.9 1030.7 5.4
27/08:30am W 9 13 - - - - - - - 8.4 1030.7 5.4
27/08:00am NW 4 6 - - - - - - - 5.7 1030.5 5.4
27/07:30am WNW 9 11 - - - - - - - 6.5 1030.3 5.4
27/07:00am WNW 4 5 - - - - - - - 4.2 1030.2 5.4
27/06:30am NW 7 8 - - - - - - - 4.6 1029.6 5.4
27/06:00am WNW 7 10 - - - - - - Rain 4.7 1029.5 5.4
27/05:30am WNW 6 7 - - - - - - - 4.9 1029.2 5.2
27/05:00am W 9 14 - - - - - - - 7.0 1029.0 5.2
27/04:30am W 7 11 - - - - - - - 7.0 1028.7 5.2
27/04:00am W 7 10 - - - - - - - 6.5 1028.3 5.0
27/03:30am W 7 8 - - - - - - - 6.0 1028.2 5.0
27/03:00am WSW 9 11 - - - - - - - 6.5 1028.1 5.0
27/02:30am W 10 15 - - - - - - - 7.0 1028.0 5.0
27/02:00am WNW 8 12 - - - - - - - 6.9 1027.6 5.0
27/01:30am W 9 11 - - - - - - - 7.1 1027.4 3.8
27/01:00am WNW 7 10 - - - - - - - 6.5 1027.5 3.4
27/12:30am WNW 8 10 - - - - - - - 6.7 1027.2 3.4
27/12:00am WNW 5 7 - - - - - - - 5.5 1027.1 3.0
 
Date/Time
EST
Wind Sea
Height
m
Swell Vis
km
Cloud Weather Temp
°C
Press
MSL
hPa
Rain since
9am
mm
Dir  Spd
kts
Gust
kts
Height
m
Period
s
Dir
26/11:30pm WNW 5 6 - - - - - - - 5.6 1027.1 3.0
26/11:00pm W 8 10 - - - - - - - 7.0 1027.0 3.0
26/10:30pm W 6 8 - - - - - - - 6.7 1026.7 3.0
26/10:00pm WNW 6 7 - - - - - - - 5.8 1026.5 2.6
26/09:30pm WNW 7 9 - - - - - - - 6.5 1026.2 2.6
26/09:00pm NW 6 7 - - - - - - - 6.1 1026.1 2.6
26/08:30pm WNW 6 7 - - - - - - - 6.0 1025.8 2.6
26/08:00pm W 6 7 - - - - - - - 7.2 1025.6 2.6
26/07:30pm NW 6 8 - - - - - - - 7.2 1025.3 2.6
26/07:00pm NW 7 8 - - - - - - - 7.8 1024.9 2.6
26/06:30pm NW 6 8 - - - - - - - 8.9 1024.8 2.6
26/06:00pm WNW 8 11 - - - - - - - 9.3 1024.3 2.6
26/05:30pm W 7 10 - - - - - - - 9.7 1024.0 2.6
26/05:00pm W 8 10 - - - - - - - 9.9 1023.5 2.6
26/04:30pm WNW 7 8 - - - - - - - 10.1 1023.0 2.6
26/04:00pm WNW 7 9 - - - - - - - 10.6 1022.8 2.4
26/03:30pm W 8 10 - - - - - - - 10.8 1022.5 2.2
26/03:00pm W 10 13 - - - - - - - 10.6 1022.3 1.8
26/02:30pm W 10 13 - - - - - - - 11.4 1021.9 1.8
26/02:00pm WNW 9 13 - - - - - - - 11.1 1021.8 1.8
26/01:30pm WNW 9 13 - - - - - - - 10.8 1021.9 1.8
26/01:00pm WNW 9 11 - - - - - - - 11.0 1022.0 1.8
26/12:30pm W 12 15 - - - - - - - 11.3 1022.0 1.6
26/12:00pm W 6 8 - - - - - - - 11.8 1022.2 1.6
26/11:30am SW 6 9 - - - - - - - 10.9 1022.5 1.6
26/11:00am WSW 7 10 - - - - - - - 10.7 1022.5 1.6
26/10:30am WSW 8 10 - - - - - - - 11.0 1022.4 1.6
26/10:00am W 10 15 - - - - - - - 10.4 1022.2 1.4
26/09:30am WSW 16 23 - - - - - - - 10.2 1022.1 0.4
26/09:00am WNW 16 21 - - - - - - - 12.8 1021.2 0.0
26/08:30am WNW 12 19 - - - - - - - 12.1 1020.9 0.0
26/08:00am WNW 12 19 - - - - - - - 11.6 1020.7 0.0
26/07:30am WNW 10 12 - - - - - - - 11.1 1020.5 0.0
26/07:00am WNW 12 16 - - - - - - - 11.6 1020.1 0.0
26/06:30am NW 12 18 - - - - - - - 11.5 1019.7 0.0
26/06:00am NW 14 21 - - - - - - - 12.1 1019.0 0.0
26/05:30am NW 13 19 - - - - - - - 11.7 1018.8 0.0
26/05:00am WNW 13 17 - - - - - - - 12.4 1018.6 0.0
26/04:30am WNW 13 17 - - - - - - - 11.7 1018.4 0.0
26/04:00am NW 12 18 - - - - - - - 11.7 1018.4 0.0
26/03:30am WNW 14 20 - - - - - - - 12.7 1018.4 0.0
26/03:00am WNW 14 21 - - - - - - - 12.5 1018.5 0.0
26/02:30am WNW 12 19 - - - - - - - 12.3 1018.6 0.0
26/02:00am NNW 8 12 - - - - - - - 10.8 1018.7 0.0
26/01:30am NW 10 13 - - - - - - - 12.2 1018.9 0.0
26/01:00am NW 13 20 - - - - - - - 12.8 1018.8 0.0
26/12:30am NW 13 18 - - - - - - - 12.9 1018.7 0.0
26/12:00am NW 13 18 - - - - - - - 12.6 1018.7 0.0
 
Date/Time
EST
Wind Sea
Height
m
Swell Vis
km
Cloud Weather Temp
°C
Press
MSL
hPa
Rain since
9am
mm
Dir  Spd
kts
Gust
kts
Height
m
Period
s
Dir
25/11:30pm NW 15 21 - - - - - - - 12.9 1018.7 0.0
25/11:00pm NW 12 16 - - - - - - - 13.0 1018.7 0.0
25/10:30pm NW 12 16 - - - - - - - 12.7 1018.4 0.0
25/10:00pm NW 11 15 - - - - - - - 12.4 1018.5 0.0
25/09:30pm NW 12 17 - - - - - - - 11.9 1018.5 0.0
25/09:00pm NW 13 18 - - - - - - - 12.3 1018.4 0.0
25/08:30pm NW 12 18 - - - - - - - 11.7 1018.4 0.0
25/08:00pm NNW 10 13 - - - - - - - 11.7 1018.4 0.0
25/07:30pm NNW 7 10 - - - - - - - 10.7 1018.3 0.0
25/07:00pm NW 5 9 - - - - - - - 10.9 1018.0 0.0
25/06:30pm N 9 15 - - - - - - - 11.5 1018.0 0.0
25/06:00pm NNW 9 14 - - - - - - - 12.4 1017.9 0.0
25/05:30pm NW 11 17 - - - - - - - 12.1 1017.8 0.0
25/05:00pm NNW 11 18 - - - - - - - 12.5 1017.7 0.0
25/04:30pm NW 10 14 - - - - - - - 13.0 1017.5 0.0
25/04:00pm NW 13 17 - - - - - - - 13.9 1017.5 0.0
25/03:30pm NW 14 20 - - - - - - - 14.4 1017.5 0.0
25/03:00pm WNW 16 22 - - - - - - - 14.5 1017.2 0.0
25/02:30pm WNW 15 21 - - - - - - - 14.9 1017.2 0.0
25/02:00pm WNW 16 23 - - - - - - - 15.0 1017.0 0.0
25/01:30pm WNW 18 26 - - - - - - - 14.8 1017.1 0.0
25/01:19pm WNW 15 25 - - - - - - - 15.0 1017.1 0.0
25/01:00pm WNW 14 21 - - - - - - - 14.9 1017.3 0.0
25/12:30pm WNW 17 22 - - - - - - - 14.6 1017.3 0.0
25/12:15pm WNW 17 27 - - - - - - - 14.2 1017.4 0.0
25/12:00pm NW 16 24 - - - - - - - 14.4 1017.6 0.0
25/11:30am NW 18 25 - - - - - - - 14.1 1017.9 0.0
25/11:00am NW 17 22 - - - - - - - 13.8 1018.3 0.0
25/10:30am WNW 17 23 - - - - - - - 13.1 1018.3 0.0
25/10:00am WNW 13 18 - - - - - - - 13.4 1018.3 0.0
25/09:30am WNW 11 17 - - - - - - - 12.7 1017.9 0.0
25/09:00am NW 12 17 - - - - - - - 12.2 1017.6 1.2
25/08:30am NW 9 13 - - - - - - - 11.1 1017.5 1.2
25/08:00am NW 12 18 - - - - - - - 10.8 1017.4 1.2
25/07:30am NW 10 13 - - - - - - - 10.0 1017.2 1.2
25/07:00am WNW 7 9 - - - - - - - 9.2 1017.2 1.2
25/06:30am WNW 9 12 - - - - - - - 9.5 1016.7 1.2
25/06:00am NW 7 9 - - - - - - - 8.1 1016.4 1.2
25/05:30am NNW 9 12 - - - - - - - 10.1 1016.0 1.2
25/05:00am NW 9 13 - - - - - - - 9.4 1015.7 1.2
25/04:30am NW 7 9 - - - - - - - 7.7 1015.6 1.2
25/04:00am NW 8 9 - - - - - - - 8.3 1015.7 1.2
25/03:30am WNW 8 11 - - - - - - - 9.6 1015.8 1.2
25/03:00am WNW 8 11 - - - - - - - 10.2 1016.0 1.2

Other formats

Comma delimited format used in spreadsheet applications
http://www.bom.gov.au/fwo/IDV60701/IDV60701.95890.axf

JavaScript Object Notation format (JSON) in row-major order
http://www.bom.gov.au/fwo/IDV60701/IDV60701.95890.json

Data quality

Most of these data are generated automatically and are frequently updated. Quality checks on data are not normally performed. It is possible for incorrect values to appear. Refer to information at About Latest Weather Observations and please check the disclaimer before using these data.